Time;durP1;ratioP1;P1;durP2;ratioP2;P2;SDS_P1;SDS_P2;PMS_P1;PMS_P2;Temp;Humidity;BMP_temperature;BMP_pressure;BME280_temperature;BME280_humidity;BME280_pressure;Samples;Min_cycle;Max_cycle;Signal;HPM_P1;HPM_P2
2022/01/26 00:00:03;;;;;;;7.32;5.07;;;;;;;;;;5067625;28;20075;-68
2022/01/26 00:07:57;;;;;;;7.30;5.55;;;;;;;;;;5066936;28;20498;-67
2022/01/26 00:10:24;;;;;;;6.75;5.50;;;;;;;;;;5068509;28;20079;-66
2022/01/26 00:12:50;;;;;;;8.90;5.88;;;;;;;;;;5067971;28;20135;-66
2022/01/26 00:15:16;;;;;;;7.63;5.18;;;;;;;;;;5066342;28;20041;-66
2022/01/26 00:17:42;;;;;;;8.75;5.80;;;;;;;;;;5067919;28;20137;-66
2022/01/26 00:20:26;;;;;;;9.60;5.60;;;;;;;;;;5068174;28;20127;-66
2022/01/26 00:28:07;;;;;;;8.25;5.93;;;;;;;;;;5068351;28;20064;-68
2022/01/26 00:38:42;;;;;;;7.72;5.20;;;;;;;;;;5068138;28;20060;-66
2022/01/26 00:41:13;;;;;;;11.02;5.97;;;;;;;;;;5066503;28;20055;-66
2022/01/26 00:43:43;;;;;;;8.68;5.20;;;;;;;;;;5067715;28;20109;-66
2022/01/26 00:46:09;;;;;;;9.13;5.32;;;;;;;;;;5067783;28;20084;-66
2022/01/26 00:48:37;;;;;;;7.85;5.43;;;;;;;;;;5066773;28;20048;-66
2022/01/26 00:51:05;;;;;;;8.48;5.88;;;;;;;;;;5066547;28;20059;-66
2022/01/26 00:53:34;;;;;;;7.93;5.30;;;;;;;;;;5065856;28;20056;-66
2022/01/26 00:56:01;;;;;;;8.45;5.55;;;;;;;;;;5066565;28;20044;-66
2022/01/26 00:58:28;;;;;;;7.18;5.35;;;;;;;;;;5067748;28;20049;-66
2022/01/26 01:00:55;;;;;;;7.90;5.22;;;;;;;;;;5066440;28;20067;-66
2022/01/26 01:03:23;;;;;;;8.15;5.40;;;;;;;;;;5067952;28;20181;-67
2022/01/26 01:06:01;;;;;;;10.70;5.78;;;;;;;;;;5067480;28;20059;-67
2022/01/26 01:08:27;;;;;;;7.60;5.50;;;;;;;;;;5065890;28;20059;-67
2022/01/26 01:10:54;;;;;;;6.93;5.63;;;;;;;;;;5065889;28;20036;-67
2022/01/26 01:13:24;;;;;;;7.35;5.18;;;;;;;;;;5049349;28;20087;-67
2022/01/26 01:15:50;;;;;;;;;;;;;;;;;;5065779;28;20049;-66
2022/01/26 01:18:24;;;;;;;7.07;5.07;;;;;;;;;;5067250;28;19920;-66
2022/01/26 01:21:25;;;;;;;10.50;5.18;;;;;;;;;;5065637;28;20060;-66
2022/01/26 01:24:13;;;;;;;8.63;6.07;;;;;;;;;;5065784;28;20708;-66
2022/01/26 01:29:30;;;;;;;8.07;5.05;;;;;;;;;;5066247;28;20135;-66
2022/01/26 01:31:59;;;;;;;8.48;5.13;;;;;;;;;;5069231;28;20066;-66
2022/01/26 01:34:36;;;;;;;9.13;5.25;;;;;;;;;;5070217;28;20135;-66
2022/01/26 01:37:06;;;;;;;8.30;5.45;;;;;;;;;;5070879;28;20123;-67
2022/01/26 01:39:33;;;;;;;6.90;4.80;;;;;;;;;;5069166;28;20044;-66
2022/01/26 01:42:00;;;;;;;6.35;4.82;;;;;;;;;;5069605;28;20052;-66
2022/01/26 01:44:26;;;;;;;7.88;5.57;;;;;;;;;;5070256;28;20226;-66
2022/01/26 01:46:54;;;;;;;7.13;5.25;;;;;;;;;;5070378;28;20045;-66
2022/01/26 01:49:20;;;;;;;8.82;5.25;;;;;;;;;;5070595;28;20051;-66
2022/01/26 01:51:54;;;;;;;7.35;5.43;;;;;;;;;;5070391;28;20048;-66
2022/01/26 01:54:20;;;;;;;7.85;5.53;;;;;;;;;;5070354;28;20048;-66
2022/01/26 01:56:51;;;;;;;9.30;5.90;;;;;;;;;;5069944;28;20199;-67
2022/01/26 01:59:17;;;;;;;7.57;5.63;;;;;;;;;;5068784;28;20040;-67
2022/01/26 02:01:43;;;;;;;8.05;5.28;;;;;;;;;;5070393;28;20052;-66
2022/01/26 02:04:09;;;;;;;6.72;5.15;;;;;;;;;;5068866;28;20045;-66
2022/01/26 02:06:35;;;;;;;6.60;4.75;;;;;;;;;;5068808;28;20048;-66
2022/01/26 02:09:03;;;;;;;9.73;5.82;;;;;;;;;;5069636;28;20049;-66
2022/01/26 02:11:29;;;;;;;7.13;5.07;;;;;;;;;;5069562;28;20144;-67
2022/01/26 02:14:10;;;;;;;7.55;5.20;;;;;;;;;;5070020;28;20060;-67
2022/01/26 02:16:46;;;;;;;7.55;5.03;;;;;;;;;;5052039;28;20126;-66
2022/01/26 03:00:41;;;;;;;7.70;5.80;;;;;;;;;;5053520;28;20048;-67
2022/01/26 03:03:45;;;;;;;7.32;5.43;;;;;;;;;;5051314;28;20043;-68
2022/01/26 03:06:04;;;;;;;6.63;5.15;;;;;;;;;;5065396;28;20577;-67
2022/01/26 03:08:43;;;;;;;7.90;5.57;;;;;;;;;;5067031;28;20055;-68
2022/01/26 03:11:14;;;;;;;8.25;5.70;;;;;;;;;;5068914;28;20056;-68
2022/01/26 03:13:47;;;;;;;7.97;5.25;;;;;;;;;;5051075;28;20059;-67
2022/01/26 03:16:21;;;;;;;15.65;5.43;;;;;;;;;;5068742;28;20044;-67
2022/01/26 03:18:59;;;;;;;9.15;5.05;;;;;;;;;;5067385;28;20355;-67
2022/01/26 03:21:33;;;;;;;9.30;5.90;;;;;;;;;;5067537;28;20091;-67
2022/01/26 03:34:27;;;;;;;15.07;5.78;;;;;;;;;;5069103;28;20383;-66
2022/01/26 03:36:59;;;;;;;7.43;5.30;;;;;;;;;;5069140;28;20040;-66
2022/01/26 03:39:27;;;;;;;6.75;5.00;;;;;;;;;;5050947;28;20044;-66
2022/01/26 03:44:19;;;;;;;8.25;5.30;;;;;;;;;;5069380;28;20040;-66
2022/01/26 03:46:47;;;;;;;8.88;5.65;;;;;;;;;;5067566;28;20075;-66
2022/01/26 03:49:13;;;;;;;8.73;5.60;;;;;;;;;;5067628;28;20094;-66
2022/01/26 03:51:42;;;;;;;9.13;5.22;;;;;;;;;;5068435;28;20391;-66
2022/01/26 03:54:09;;;;;;;9.35;5.00;;;;;;;;;;5067791;28;20089;-67
2022/01/26 03:56:35;;;;;;;11.25;6.93;;;;;;;;;;5051034;28;20059;-66
2022/01/26 03:59:01;;;;;;;12.30;5.43;;;;;;;;;;5068830;28;20063;-67
2022/01/26 04:01:27;;;;;;;9.73;5.50;;;;;;;;;;5067593;28;20078;-67
2022/01/26 04:03:53;;;;;;;9.50;5.22;;;;;;;;;;5068740;28;20037;-67
2022/01/26 04:06:19;;;;;;;10.05;5.20;;;;;;;;;;5050257;28;20071;-67
2022/01/26 04:08:46;;;;;;;9.88;4.85;;;;;;;;;;5067108;28;20049;-67
2022/01/26 04:13:49;;;;;;;7.97;5.68;;;;;;;;;;5067254;28;20052;-68
2022/01/26 04:16:16;;;;;;;8.00;5.63;;;;;;;;;;5067591;28;20048;-67
2022/01/26 04:18:42;;;;;;;7.97;5.35;;;;;;;;;;5050449;28;20048;-67
2022/01/26 04:26:12;;;;;;;8.05;5.40;;;;;;;;;;5066979;28;20052;-67
2022/01/26 04:28:44;;;;;;;8.40;5.13;;;;;;;;;;5066940;28;20340;-67
2022/01/26 04:31:10;;;;;;;7.20;4.82;;;;;;;;;;5066395;28;20056;-67
2022/01/26 04:33:37;;;;;;;7.03;5.28;;;;;;;;;;5066719;28;20425;-67
2022/01/26 04:36:06;;;;;;;7.82;5.47;;;;;;;;;;5066722;28;20048;-68
2022/01/26 04:38:47;;;;;;;6.28;5.03;;;;;;;;;;5067865;28;20052;-67
2022/01/26 04:44:00;;;;;;;7.45;5.15;;;;;;;;;;5066815;28;20049;-67
2022/01/26 04:46:26;;;;;;;8.40;4.88;;;;;;;;;;5066901;28;20053;-67
2022/01/26 04:48:52;;;;;;;6.03;4.90;;;;;;;;;;5067447;28;20056;-67
2022/01/26 04:51:19;;;;;;;6.60;4.65;;;;;;;;;;5065948;28;20126;-67
2022/01/26 04:53:45;;;;;;;7.25;5.28;;;;;;;;;;5066511;28;20055;-67
2022/01/26 04:56:13;;;;;;;6.28;4.80;;;;;;;;;;5049759;28;20048;-67
2022/01/26 04:58:39;;;;;;;6.78;4.93;;;;;;;;;;5065793;28;20441;-67
2022/01/26 05:01:05;;;;;;;7.30;4.85;;;;;;;;;;5065952;28;20131;-66
2022/01/26 05:03:31;;;;;;;6.50;4.93;;;;;;;;;;5066936;28;20045;-66
2022/01/26 05:05:57;;;;;;;8.07;4.72;;;;;;;;;;5071226;28;20044;-66
2022/01/26 05:08:23;;;;;;;6.68;4.72;;;;;;;;;;5069872;28;20043;-66
2022/01/26 05:10:50;;;;;;;7.65;4.95;;;;;;;;;;5070355;28;20417;-67
2022/01/26 05:13:16;;;;;;;6.70;4.72;;;;;;;;;;5053402;28;20044;-68
2022/01/26 05:15:43;;;;;;;7.75;5.05;;;;;;;;;;5069851;28;20048;-67
2022/01/26 05:18:09;;;;;;;8.45;5.18;;;;;;;;;;5069253;28;20044;-67
2022/01/26 05:20:35;;;;;;;5.95;4.65;;;;;;;;;;5069878;28;20048;-67
2022/01/26 05:23:02;;;;;;;7.03;5.30;;;;;;;;;;5071092;28;20044;-68
2022/01/26 05:25:28;;;;;;;8.80;4.90;;;;;;;;;;5069419;28;20064;-68
2022/01/26 05:27:54;;;;;;;7.35;5.00;;;;;;;;;;5071204;28;20045;-68
2022/01/26 05:30:20;;;;;;;6.55;4.20;;;;;;;;;;5069041;28;20457;-68
2022/01/26 05:32:46;;;;;;;6.93;4.95;;;;;;;;;;5052965;28;20455;-68
2022/01/26 05:35:13;;;;;;;8.15;4.95;;;;;;;;;;5052852;28;20394;-68
2022/01/26 05:37:39;;;;;;;6.15;4.72;;;;;;;;;;5070789;28;20048;-68
2022/01/26 05:40:06;;;;;;;7.55;4.40;;;;;;;;;;5052607;28;20055;-68
2022/01/26 05:42:34;;;;;;;6.57;4.55;;;;;;;;;;5052445;28;20073;-69
2022/01/26 05:45:04;;;;;;;9.93;4.80;;;;;;;;;;5052263;28;20047;-68
2022/01/26 05:47:32;;;;;;;8.15;5.63;;;;;;;;;;5052597;28;20088;-68
2022/01/26 05:49:59;;;;;;;6.43;5.32;;;;;;;;;;5052706;28;20052;-68
2022/01/26 05:52:25;;;;;;;6.38;4.78;;;;;;;;;;5069335;28;20060;-68
2022/01/26 05:54:51;;;;;;;7.32;4.80;;;;;;;;;;5070683;28;20098;-68
2022/01/26 05:57:17;;;;;;;7.20;5.00;;;;;;;;;;5051530;28;20128;-68
2022/01/26 05:59:43;;;;;;;7.55;5.10;;;;;;;;;;5068872;28;20080;-68
2022/01/26 06:02:09;;;;;;;7.63;4.65;;;;;;;;;;5070082;28;20052;-68
2022/01/26 06:04:35;;;;;;;7.22;5.13;;;;;;;;;;5069215;28;20048;-67
2022/01/26 06:07:01;;;;;;;7.82;5.43;;;;;;;;;;5052666;28;20458;-67
2022/01/26 06:09:27;;;;;;;7.63;5.00;;;;;;;;;;5068575;28;20053;-66
2022/01/26 06:11:53;;;;;;;6.50;4.32;;;;;;;;;;5052503;28;20052;-66
2022/01/26 06:14:19;;;;;;;6.70;4.75;;;;;;;;;;5070911;28;20084;-66
2022/01/26 06:16:45;;;;;;;6.50;4.95;;;;;;;;;;5069150;28;20045;-67
2022/01/26 06:19:11;;;;;;;9.70;5.28;;;;;;;;;;5070123;28;20106;-66
2022/01/26 06:21:38;;;;;;;7.85;4.72;;;;;;;;;;5070583;28;20049;-66
2022/01/26 06:24:04;;;;;;;6.93;5.05;;;;;;;;;;5069261;28;20052;-65
2022/01/26 06:26:30;;;;;;;8.07;4.68;;;;;;;;;;5070543;28;20064;-66
2022/01/26 06:28:56;;;;;;;6.32;4.70;;;;;;;;;;5070084;28;20383;-66
2022/01/26 06:31:26;;;;;;;6.53;4.70;;;;;;;;;;5068188;28;20059;-66
2022/01/26 06:33:52;;;;;;;6.00;4.53;;;;;;;;;;5052041;28;20048;-66
2022/01/26 06:36:19;;;;;;;7.47;4.80;;;;;;;;;;5069186;28;20115;-66
2022/01/26 06:38:46;;;;;;;7.05;4.93;;;;;;;;;;5070214;28;20042;-67
2022/01/26 06:41:13;;;;;;;6.35;4.82;;;;;;;;;;5068803;28;20095;-66
2022/01/26 06:43:53;;;;;;;5.57;4.35;;;;;;;;;;5069552;28;20210;-66
2022/01/26 06:46:26;;;;;;;7.57;5.18;;;;;;;;;;5069052;28;20124;-67
2022/01/26 06:51:30;;;;;;;6.53;4.50;;;;;;;;;;5069218;28;20057;-67
2022/01/26 06:53:56;;;;;;;10.70;4.95;;;;;;;;;;5069930;28;20367;-68
2022/01/26 06:56:22;;;;;;;5.90;4.28;;;;;;;;;;5068417;28;20903;-66
2022/01/26 06:58:48;;;;;;;7.10;4.70;;;;;;;;;;5070094;28;20049;-67
2022/01/26 07:01:15;;;;;;;5.90;4.15;;;;;;;;;;5069853;28;20117;-67
2022/01/26 07:03:41;;;;;;;6.72;4.80;;;;;;;;;;5069897;28;20052;-67
2022/01/26 07:06:07;;;;;;;5.72;4.35;;;;;;;;;;5067665;28;20082;-67
2022/01/26 07:08:33;;;;;;;6.32;4.80;;;;;;;;;;5051486;28;20125;-68
2022/01/26 07:11:00;;;;;;;6.88;4.65;;;;;;;;;;5067794;28;20051;-67
2022/01/26 07:13:26;;;;;;;5.95;4.30;;;;;;;;;;5068144;28;20044;-67
2022/01/26 07:21:25;;;;;;;15.10;5.22;;;;;;;;;;5068760;28;20056;-67
2022/01/26 07:23:52;;;;;;;9.98;5.22;;;;;;;;;;5068114;28;20052;-69
2022/01/26 07:26:18;;;;;;;9.60;5.18;;;;;;;;;;5069214;28;20051;-68
2022/01/26 07:28:44;;;;;;;9.38;5.25;;;;;;;;;;5069276;28;20048;-68
2022/01/26 07:31:10;;;;;;;6.75;4.85;;;;;;;;;;5067094;28;20478;-68
2022/01/26 07:33:38;;;;;;;7.20;5.05;;;;;;;;;;5067603;28;20529;-67
2022/01/26 07:36:04;;;;;;;8.52;4.78;;;;;;;;;;5067687;28;20052;-67
2022/01/26 07:38:31;;;;;;;8.27;5.15;;;;;;;;;;5068952;28;20071;-67
2022/01/26 07:40:57;;;;;;;9.23;4.50;;;;;;;;;;5068348;28;20117;-67
2022/01/26 07:43:24;;;;;;;8.88;5.10;;;;;;;;;;5068897;28;20157;-69
2022/01/26 07:45:51;;;;;;;7.82;5.05;;;;;;;;;;5069241;28;20052;-68
2022/01/26 07:48:17;;;;;;;7.25;4.93;;;;;;;;;;5067727;28;20075;-68
2022/01/26 07:50:48;;;;;;;8.68;4.45;;;;;;;;;;5067433;28;20085;-68
2022/01/26 07:53:16;;;;;;;8.55;5.00;;;;;;;;;;5050333;28;20052;-67
2022/01/26 07:55:43;;;;;;;6.72;4.93;;;;;;;;;;5067268;28;20049;-66
2022/01/26 07:58:10;;;;;;;25.30;15.60;;;;;;;;;;5067457;28;20132;-66
2022/01/26 08:00:36;;;;;;;36.75;25.05;;;;;;;;;;5067953;28;20052;-66
2022/01/26 08:03:02;;;;;;;34.35;22.73;;;;;;;;;;5050393;28;20528;-66
2022/01/26 08:05:29;;;;;;;38.63;24.92;;;;;;;;;;5068823;28;20048;-66
2022/01/26 08:07:55;;;;;;;36.78;23.98;;;;;;;;;;5067521;28;20599;-66
2022/01/26 08:10:21;;;;;;;41.38;27.63;;;;;;;;;;5068558;28;20445;-67
2022/01/26 08:12:49;;;;;;;42.50;27.65;;;;;;;;;;5066817;28;20055;-67
2022/01/26 08:15:15;;;;;;;46.13;29.23;;;;;;;;;;5050754;28;20135;-67
2022/01/26 08:17:42;;;;;;;45.90;31.15;;;;;;;;;;5067315;28;20406;-68
2022/01/26 08:20:10;;;;;;;46.38;29.60;;;;;;;;;;5068195;28;20441;-67
2022/01/26 08:22:36;;;;;;;45.97;29.35;;;;;;;;;;5066686;28;20080;-68
2022/01/26 08:25:02;;;;;;;44.08;28.45;;;;;;;;;;5067405;28;20452;-67
2022/01/26 08:27:33;;;;;;;45.35;29.48;;;;;;;;;;5066686;28;20040;-68
2022/01/26 08:30:07;;;;;;;33.45;20.40;;;;;;;;;;5049324;28;20060;-66
2022/01/26 08:32:33;;;;;;;27.33;17.25;;;;;;;;;;5066175;28;20155;-66
2022/01/26 08:34:59;;;;;;;36.28;23.08;;;;;;;;;;5066344;28;20040;-66
2022/01/26 08:37:26;;;;;;;41.22;26.30;;;;;;;;;;5067285;28;20486;-66
2022/01/26 08:39:52;;;;;;;40.88;25.80;;;;;;;;;;5067157;28;20054;-67
2022/01/26 08:42:18;;;;;;;44.22;27.30;;;;;;;;;;5067074;28;20144;-66
2022/01/26 08:44:44;;;;;;;47.67;30.05;;;;;;;;;;5067413;28;20106;-66
2022/01/26 08:47:10;;;;;;;49.33;30.17;;;;;;;;;;5065886;28;20044;-67
2022/01/26 08:49:36;;;;;;;47.05;28.00;;;;;;;;;;5067530;28;20738;-66
2022/01/26 08:52:04;;;;;;;41.60;25.20;;;;;;;;;;5067163;28;20048;-66
2022/01/26 08:54:30;;;;;;;39.17;23.95;;;;;;;;;;5067006;28;20423;-66
2022/01/26 08:56:56;;;;;;;38.28;24.27;;;;;;;;;;5067568;28;20051;-64
2022/01/26 08:59:23;;;;;;;49.85;29.23;;;;;;;;;;5067450;28;20051;-64
2022/01/26 09:01:50;;;;;;;45.13;27.67;;;;;;;;;;5066054;28;20059;-65
2022/01/26 09:04:16;;;;;;;47.33;29.73;;;;;;;;;;5067600;28;20048;-64
2022/01/26 09:06:57;;;;;;;43.25;26.10;;;;;;;;;;5067310;28;20062;-64
2022/01/26 09:09:26;;;;;;;42.80;26.20;;;;;;;;;;5049365;28;20045;-63
2022/01/26 09:11:55;;;;;;;47.67;28.15;;;;;;;;;;5066771;28;20075;-69
2022/01/26 09:14:24;;;;;;;48.13;29.77;;;;;;;;;;5049069;28;20060;-67
2022/01/26 09:16:53;;;;;;;47.83;26.00;;;;;;;;;;5066016;28;20052;-65
2022/01/26 09:21:52;;;;;;;47.20;27.65;;;;;;;;;;5059476;28;20061;-65
2022/01/26 09:24:18;;;;;;;43.28;24.67;;;;;;;;;;5046926;28;20063;-66
2022/01/26 09:26:44;;;;;;;40.40;23.70;;;;;;;;;;5066503;28;20123;-65
2022/01/26 09:29:10;;;;;;;43.22;26.77;;;;;;;;;;5065157;28;20052;-66
2022/01/26 09:31:36;;;;;;;49.63;31.13;;;;;;;;;;5065303;28;20061;-66
2022/01/26 09:34:03;;;;;;;40.10;25.48;;;;;;;;;;5066496;28;20431;-66
2022/01/26 09:36:30;;;;;;;48.63;28.88;;;;;;;;;;5066940;28;21098;-66
2022/01/26 09:38:56;;;;;;;48.97;28.65;;;;;;;;;;5065358;28;20524;-65
2022/01/26 09:41:23;;;;;;;45.58;29.17;;;;;;;;;;5065621;28;20044;-66
2022/01/26 09:43:49;;;;;;;41.00;26.77;;;;;;;;;;5066310;28;20048;-67
2022/01/26 09:46:15;;;;;;;39.58;24.73;;;;;;;;;;5065295;28;20052;-66
2022/01/26 09:48:43;;;;;;;43.33;26.45;;;;;;;;;;5065572;28;20083;-65
2022/01/26 09:51:12;;;;;;;50.60;29.20;;;;;;;;;;5068317;28;20049;-65
2022/01/26 09:53:39;;;;;;;46.15;28.38;;;;;;;;;;5070185;28;20135;-66
2022/01/26 09:56:05;;;;;;;44.22;26.63;;;;;;;;;;5069463;28;20398;-65
2022/01/26 09:58:32;;;;;;;43.42;26.50;;;;;;;;;;5052338;28;20531;-66
2022/01/26 10:00:59;;;;;;;35.40;22.65;;;;;;;;;;5071035;28;20048;-65
2022/01/26 10:03:30;;;;;;;46.85;28.13;;;;;;;;;;5070115;28;20999;-66
2022/01/26 10:05:57;;;;;;;45.50;27.40;;;;;;;;;;5070978;28;20376;-66
2022/01/26 10:08:49;;;;;;;41.45;24.33;;;;;;;;;;5070545;28;20058;-66
2022/01/26 10:18:59;;;;;;;44.97;25.52;;;;;;;;;;5069363;28;20593;-66
2022/01/26 10:21:25;;;;;;;48.17;27.98;;;;;;;;;;5068824;28;20146;-64
2022/01/26 10:23:52;;;;;;;39.75;23.88;;;;;;;;;;5052355;28;20080;-66
2022/01/26 10:26:20;;;;;;;39.83;23.27;;;;;;;;;;5069042;28;20094;-65
2022/01/26 10:28:47;;;;;;;40.30;23.70;;;;;;;;;;5051489;28;20482;-66
2022/01/26 10:31:14;;;;;;;35.45;20.65;;;;;;;;;;5068821;28;20099;-66
2022/01/26 10:33:41;;;;;;;33.28;20.25;;;;;;;;;;5068581;28;20147;-67
2022/01/26 10:36:07;;;;;;;32.10;19.83;;;;;;;;;;5070136;28;20046;-66
2022/01/26 10:38:33;;;;;;;30.48;20.95;;;;;;;;;;5052232;28;20048;-66
2022/01/26 10:41:01;;;;;;;37.47;20.80;;;;;;;;;;5070584;28;20559;-66
2022/01/26 10:43:30;;;;;;;33.08;20.95;;;;;;;;;;5070002;28;20471;-65
2022/01/26 10:46:00;;;;;;;34.08;19.90;;;;;;;;;;5068746;28;20045;-65
2022/01/26 10:53:43;;;;;;;31.83;20.60;;;;;;;;;;5069433;28;20066;-65
2022/01/26 10:56:09;;;;;;;31.98;20.60;;;;;;;;;;5069557;28;20060;-65
2022/01/26 10:58:35;;;;;;;36.15;21.83;;;;;;;;;;5067517;28;20048;-65
2022/01/26 11:01:01;;;;;;;33.17;21.05;;;;;;;;;;5067781;28;20374;-66
2022/01/26 11:03:28;;;;;;;33.80;22.30;;;;;;;;;;5069249;28;20068;-66
2022/01/26 11:05:55;;;;;;;31.17;21.27;;;;;;;;;;5069027;28;20540;-66
2022/01/26 11:08:21;;;;;;;32.72;21.27;;;;;;;;;;5056975;28;20564;-65
2022/01/26 11:10:48;;;;;;;33.30;21.77;;;;;;;;;;5049480;28;20427;-65
2022/01/26 11:13:30;;;;;;;31.33;20.67;;;;;;;;;;5049520;28;20079;-66
2022/01/26 11:16:09;;;;;;;32.85;20.45;;;;;;;;;;5049779;28;20049;-65
2022/01/26 11:18:47;;;;;;;33.30;21.10;;;;;;;;;;5065190;28;20044;-65
2022/01/26 11:21:24;;;;;;;31.02;20.48;;;;;;;;;;5069209;28;20045;-66
2022/01/26 11:23:52;;;;;;;30.27;20.10;;;;;;;;;;5069563;28;20049;-66
2022/01/26 11:26:25;;;;;;;32.95;20.90;;;;;;;;;;5067384;28;20048;-67
2022/01/26 11:28:51;;;;;;;31.00;20.63;;;;;;;;;;5069443;28;20154;-67
2022/01/26 11:31:18;;;;;;;29.52;20.88;;;;;;;;;;5067808;28;20060;-67
2022/01/26 11:33:48;;;;;;;32.15;21.00;;;;;;;;;;5069477;28;20049;-67
2022/01/26 11:36:17;;;;;;;29.65;19.88;;;;;;;;;;5069042;28;20063;-67
2022/01/26 11:47:19;;;;;;;29.50;20.17;;;;;;;;;;5069088;28;20128;-68
2022/01/26 11:49:46;;;;;;;29.92;20.02;;;;;;;;;;5068622;28;20449;-67
2022/01/26 11:52:39;;;;;;;30.90;20.98;;;;;;;;;;5068812;28;20410;-67
2022/01/26 11:55:32;;;;;;;30.13;20.70;;;;;;;;;;5064826;28;20052;-67
2022/01/26 11:58:12;;;;;;;28.00;19.52;;;;;;;;;;5067961;28;20452;-66
2022/01/26 12:01:10;;;;;;;29.20;20.25;;;;;;;;;;5067349;28;20163;-67
2022/01/26 12:03:43;;;;;;;29.73;19.92;;;;;;;;;;5067902;28;20072;-66
2022/01/26 12:06:18;;;;;;;29.75;20.08;;;;;;;;;;5068420;28;20096;-67
2022/01/26 12:08:45;;;;;;;27.10;19.42;;;;;;;;;;5067176;28;20114;-67
2022/01/26 12:11:14;;;;;;;26.60;19.40;;;;;;;;;;5067691;28;20140;-67
2022/01/26 12:13:41;;;;;;;27.70;19.02;;;;;;;;;;5066247;28;20045;-67
2022/01/26 12:16:14;;;;;;;27.10;19.30;;;;;;;;;;5066463;28;20184;-67
2022/01/26 12:18:49;;;;;;;27.02;17.95;;;;;;;;;;5066713;28;20127;-67
2022/01/26 12:32:37;;;;;;;25.25;18.02;;;;;;;;;;5068024;28;20052;-67
2022/01/26 12:35:18;;;;;;;26.10;18.13;;;;;;;;;;5066616;28;20048;-66
2022/01/26 12:43:20;;;;;;;25.92;18.77;;;;;;;;;;5067926;28;20083;-67
2022/01/26 12:45:47;;;;;;;28.35;19.55;;;;;;;;;;5067589;28;20588;-67
2022/01/26 12:48:13;;;;;;;23.52;17.50;;;;;;;;;;5066809;28;20086;-66
2022/01/26 12:50:41;;;;;;;24.75;17.65;;;;;;;;;;5067846;28;20059;-65
2022/01/26 12:53:07;;;;;;;24.45;17.88;;;;;;;;;;5068010;28;20052;-66
2022/01/26 12:55:36;;;;;;;25.92;17.98;;;;;;;;;;5066881;28;20118;-66
2022/01/26 12:58:03;;;;;;;25.60;18.42;;;;;;;;;;5066712;28;20709;-66
2022/01/26 13:00:40;;;;;;;23.95;17.52;;;;;;;;;;5067686;28;20410;-66
2022/01/26 13:03:10;;;;;;;25.38;17.83;;;;;;;;;;5066682;28;20048;-66
2022/01/26 13:05:36;;;;;;;25.52;17.70;;;;;;;;;;5066698;28;20044;-67
2022/01/26 13:08:03;;;;;;;24.92;17.83;;;;;;;;;;5067549;28;20055;-66
2022/01/26 13:10:30;;;;;;;24.98;17.98;;;;;;;;;;5067453;28;20174;-66
2022/01/26 13:12:57;;;;;;;23.45;17.33;;;;;;;;;;5066267;28;20055;-66
2022/01/26 13:15:38;;;;;;;24.17;17.10;;;;;;;;;;5067601;28;20121;-66
2022/01/26 13:18:17;;;;;;;25.45;17.58;;;;;;;;;;5065909;28;20052;-67
2022/01/26 13:21:06;;;;;;;23.77;17.67;;;;;;;;;;5066236;28;20049;-67
2022/01/26 13:23:50;;;;;;;24.08;17.23;;;;;;;;;;5065591;28;20221;-67
2022/01/26 13:26:31;;;;;;;25.77;17.60;;;;;;;;;;5071286;28;20048;-68
2022/01/26 13:39:51;;;;;;;23.20;16.95;;;;;;;;;;5071153;28;20461;-67
2022/01/26 13:48:39;;;;;;;23.45;16.40;;;;;;;;;;5064608;28;20060;-66
2022/01/26 13:50:35;;;;;;;22.35;16.25;;;;;;;;;;5065891;28;20104;-67
2022/01/26 13:53:21;;;;;;;24.15;16.77;;;;;;;;;;5065453;28;20048;-64
2022/01/26 13:56:10;;;;;;;21.17;15.85;;;;;;;;;;5065545;28;20060;-64
2022/01/26 14:01:15;;;;;;;22.52;16.60;;;;;;;;;;5071075;28;20084;-65
2022/01/26 14:03:41;;;;;;;25.63;16.52;;;;;;;;;;5071382;28;20059;-65
2022/01/26 14:06:09;;;;;;;21.00;15.55;;;;;;;;;;5069757;28;20048;-65
2022/01/26 14:08:35;;;;;;;20.95;15.23;;;;;;;;;;5069505;28;21077;-65
2022/01/26 14:11:01;;;;;;;21.15;15.38;;;;;;;;;;5070469;28;20082;-65
2022/01/26 14:13:28;;;;;;;22.17;15.23;;;;;;;;;;5056751;28;20521;-65
2022/01/26 14:15:58;;;;;;;21.80;15.60;;;;;;;;;;5058670;28;20044;-64
2022/01/26 14:20:56;;;;;;;21.38;15.23;;;;;;;;;;5070788;28;20060;-66
2022/01/26 14:25:52;;;;;;;20.58;14.90;;;;;;;;;;5069357;28;20044;-67
2022/01/26 14:28:22;;;;;;;22.13;15.75;;;;;;;;;;5070727;28;20060;-66
2022/01/26 14:39:36;;;;;;;21.17;14.98;;;;;;;;;;5032203;28;20084;-66
2022/01/26 15:08:44;;;;;;;21.85;14.75;;;;;;;;;;5048652;28;20053;-66
2022/01/26 15:31:32;;;;;;;17.92;13.48;;;;;;;;;;5049274;28;20194;-66
2022/01/26 15:44:26;;;;;;;18.73;12.75;;;;;;;;;;5069058;28;20414;-66
2022/01/26 15:49:51;;;;;;;18.00;11.95;;;;;;;;;;5047937;28;20040;-66
2022/01/26 15:52:43;;;;;;;18.50;12.27;;;;;;;;;;5066973;28;20051;-66
2022/01/26 15:58:15;;;;;;;18.02;12.10;;;;;;;;;;5068728;28;20047;-66
2022/01/26 16:06:37;;;;;;;16.85;12.02;;;;;;;;;;5084643;28;20449;-65
2022/01/26 16:52:21;;;;;;;16.70;11.68;;;;;;;;;;5048267;28;20171;-66
2022/01/26 17:13:05;;;;;;;20.02;11.93;;;;;;;;;;5071755;28;20053;-68
2022/01/26 18:17:55;;;;;;;12.32;8.68;;;;;;;;;;5071169;28;20120;-67
2022/01/26 18:26:26;;;;;;;13.05;9.40;;;;;;;;;;5050527;28;20472;-67
2022/01/26 18:50:55;;;;;;;11.88;8.23;;;;;;;;;;5050096;28;20131;-67
2022/01/26 18:53:21;;;;;;;13.65;8.75;;;;;;;;;;5050032;28;20420;-67
2022/01/26 18:55:47;;;;;;;12.45;8.73;;;;;;;;;;5050094;28;20429;-67
2022/01/26 18:58:13;;;;;;;13.05;9.40;;;;;;;;;;5049330;28;20039;-67
2022/01/26 19:00:43;;;;;;;11.52;8.30;;;;;;;;;;5050033;28;20049;-67
2022/01/26 19:03:09;;;;;;;11.73;7.85;;;;;;;;;;5049532;28;20049;-67
2022/01/26 19:05:36;;;;;;;11.15;8.30;;;;;;;;;;5049364;28;20057;-67
2022/01/26 19:08:02;;;;;;;12.85;8.73;;;;;;;;;;5049601;28;20045;-66
2022/01/26 19:10:28;;;;;;;10.82;7.80;;;;;;;;;;5049170;28;20052;-67
2022/01/26 19:12:54;;;;;;;12.82;8.48;;;;;;;;;;5049475;28;20118;-67
2022/01/26 19:15:25;;;;;;;13.43;8.80;;;;;;;;;;5048172;28;20410;-66
2022/01/26 19:18:06;;;;;;;11.57;8.07;;;;;;;;;;5049199;28;20048;-66
2022/01/26 19:23:47;;;;;;;11.63;8.27;;;;;;;;;;5049018;28;20055;-67
2022/01/26 19:26:16;;;;;;;11.38;8.15;;;;;;;;;;5048669;28;20056;-68
2022/01/26 19:28:47;;;;;;;10.98;7.88;;;;;;;;;;5049044;28;20502;-67
2022/01/26 19:45:06;;;;;;;11.65;7.40;;;;;;;;;;5048995;28;20041;-67
2022/01/26 19:53:02;;;;;;;9.05;6.60;;;;;;;;;;5055463;28;20080;-66
2022/01/26 19:55:28;;;;;;;10.18;7.05;;;;;;;;;;5068765;28;20036;-66
2022/01/26 19:57:55;;;;;;;11.18;7.57;;;;;;;;;;5069005;28;20057;-67
2022/01/26 20:00:21;;;;;;;10.40;6.80;;;;;;;;;;5067280;28;20106;-66
2022/01/26 20:02:47;;;;;;;10.00;7.40;;;;;;;;;;5068818;28;20465;-66
2022/01/26 20:05:16;;;;;;;9.77;6.68;;;;;;;;;;5068873;28;20465;-67
2022/01/26 20:07:43;;;;;;;10.65;7.22;;;;;;;;;;5061570;28;20052;-66
2022/01/26 20:10:12;;;;;;;12.95;7.30;;;;;;;;;;5048120;28;20128;-67
2022/01/26 20:12:48;;;;;;;10.27;6.67;;;;;;;;;;5048338;28;20049;-67
2022/01/26 20:15:15;;;;;;;9.65;7.20;;;;;;;;;;5048804;28;20370;-67
2022/01/26 20:17:44;;;;;;;9.15;6.57;;;;;;;;;;5048568;28;20507;-67
2022/01/26 20:20:20;;;;;;;10.18;7.20;;;;;;;;;;5048447;28;20065;-66
2022/01/26 20:22:46;;;;;;;8.75;6.63;;;;;;;;;;5067122;28;20052;-68
2022/01/26 20:25:14;;;;;;;9.93;6.75;;;;;;;;;;5067405;28;20072;-68
2022/01/26 20:27:40;;;;;;;9.35;6.75;;;;;;;;;;5068112;28;20048;-67
2022/01/26 20:30:19;;;;;;;10.02;6.63;;;;;;;;;;5068266;28;20048;-67
2022/01/26 20:32:46;;;;;;;10.45;6.97;;;;;;;;;;5068328;28;20485;-68
2022/01/26 20:35:13;;;;;;;10.52;7.05;;;;;;;;;;5065868;28;20052;-67
2022/01/26 20:37:39;;;;;;;10.60;6.63;;;;;;;;;;5049589;28;20048;-68
2022/01/26 20:40:06;;;;;;;10.80;6.60;;;;;;;;;;5047587;28;20087;-68
2022/01/26 20:42:32;;;;;;;9.15;6.53;;;;;;;;;;5047912;28;20064;-67
2022/01/26 20:44:58;;;;;;;10.50;6.90;;;;;;;;;;5047998;28;20045;-67
2022/01/26 20:47:24;;;;;;;9.73;6.28;;;;;;;;;;5047889;28;20041;-67
2022/01/26 20:49:50;;;;;;;8.90;6.32;;;;;;;;;;5047519;28;20041;-67
2022/01/26 20:52:16;;;;;;;8.63;6.07;;;;;;;;;;5029628;28;20103;-67
2022/01/26 20:54:42;;;;;;;8.93;6.18;;;;;;;;;;5047794;28;20578;-67
2022/01/26 20:57:08;;;;;;;10.60;6.68;;;;;;;;;;5047647;28;20134;-67
2022/01/26 20:59:34;;;;;;;10.65;6.63;;;;;;;;;;5049646;28;20068;-67
2022/01/26 21:02:00;;;;;;;8.73;6.53;;;;;;;;;;5063822;28;20075;-67
2022/01/26 21:04:26;;;;;;;9.30;6.75;;;;;;;;;;5068059;28;20040;-68
2022/01/26 21:06:52;;;;;;;8.80;6.63;;;;;;;;;;5068473;28;20052;-67
2022/01/26 21:09:19;;;;;;;9.48;6.57;;;;;;;;;;5068179;28;20044;-68
2022/01/26 21:11:45;;;;;;;9.57;6.45;;;;;;;;;;5066372;28;20312;-67
2022/01/26 21:14:11;;;;;;;8.80;6.10;;;;;;;;;;5066211;28;20418;-68
2022/01/26 21:16:37;;;;;;;9.73;6.68;;;;;;;;;;5066418;28;20044;-67
2022/01/26 21:19:05;;;;;;;8.70;6.47;;;;;;;;;;5066540;28;20708;-67
2022/01/26 21:21:31;;;;;;;9.98;6.20;;;;;;;;;;5049533;28;20059;-67
2022/01/26 21:23:57;;;;;;;11.07;6.30;;;;;;;;;;5067595;28;20045;-68
2022/01/26 21:26:25;;;;;;;8.27;6.05;;;;;;;;;;5067369;28;20202;-68
2022/01/26 21:28:51;;;;;;;8.05;5.85;;;;;;;;;;5068065;28;20131;-68
2022/01/26 21:31:17;;;;;;;10.35;5.70;;;;;;;;;;5067200;28;20106;-68